createdAt,value
2022-07-25T00:01:35.499Z,6.13
2022-07-25T00:04:05.254Z,5.53
2022-07-25T00:06:32.152Z,6.40
2022-07-25T00:08:58.549Z,7.80
2022-07-25T00:11:24.932Z,6.63
2022-07-25T00:13:51.325Z,5.65
2022-07-25T00:16:17.868Z,6.20
2022-07-25T00:18:44.451Z,5.43
2022-07-25T00:21:10.990Z,6.47
2022-07-25T00:23:37.402Z,7.13
2022-07-25T00:26:03.912Z,5.80
2022-07-25T00:28:30.350Z,5.78
2022-07-25T00:30:56.959Z,4.85
2022-07-25T00:33:23.400Z,5.60
2022-07-25T00:35:50.044Z,5.82
2022-07-25T00:38:16.700Z,6.10
2022-07-25T00:40:43.851Z,5.75
2022-07-25T00:43:10.297Z,8.88
2022-07-25T00:45:37.184Z,8.43
2022-07-25T00:48:03.801Z,6.32
2022-07-25T00:50:31.048Z,6.60
2022-07-25T00:52:57.490Z,5.82
2022-07-25T00:55:25.279Z,7.43
2022-07-25T00:57:51.682Z,6.82
2022-07-25T01:00:18.760Z,6.50
2022-07-25T01:02:45.353Z,6.85
2022-07-25T01:05:12.082Z,6.65
2022-07-25T01:07:39.589Z,6.55
2022-07-25T01:10:06.931Z,6.85
2022-07-25T01:12:50.640Z,6.15
2022-07-25T01:15:22.294Z,6.90
2022-07-25T01:17:49.441Z,6.88
2022-07-25T01:20:16.762Z,6.30
2022-07-25T01:22:43.899Z,7.82
2022-07-25T01:25:11.472Z,7.65
2022-07-25T01:27:38.158Z,7.15
2022-07-25T01:30:06.850Z,7.53
2022-07-25T01:32:33.721Z,6.13
2022-07-25T01:35:00.133Z,6.80
2022-07-25T01:37:26.592Z,5.82
2022-07-25T01:39:53.032Z,6.65
2022-07-25T01:42:19.461Z,5.75
2022-07-25T01:44:45.891Z,7.47
2022-07-25T01:47:12.333Z,8.77
2022-07-25T01:49:38.853Z,7.82
2022-07-25T01:52:05.426Z,6.85
2022-07-25T01:54:32.214Z,7.50
2022-07-25T01:56:58.642Z,7.45
2022-07-25T01:59:25.498Z,6.72
2022-07-25T02:01:52.050Z,7.03
2022-07-25T02:04:18.682Z,7.15
2022-07-25T02:06:45.192Z,6.05
2022-07-25T02:09:11.614Z,6.72
2022-07-25T02:11:38.066Z,6.43
2022-07-25T02:14:04.824Z,6.15
2022-07-25T02:16:31.477Z,6.20
2022-07-25T02:18:58.244Z,8.48
2022-07-25T02:21:25.942Z,8.27
2022-07-25T02:23:52.619Z,6.68
2022-07-25T02:26:19.052Z,6.63
2022-07-25T02:28:45.454Z,6.80
2022-07-25T02:31:11.934Z,6.68
2022-07-25T02:33:38.479Z,6.45
2022-07-25T02:36:05.129Z,8.38
2022-07-25T02:38:31.583Z,7.28
2022-07-25T02:40:57.991Z,6.70
2022-07-25T02:43:24.443Z,8.75
2022-07-25T02:45:50.985Z,7.82
2022-07-25T02:48:17.438Z,7.70
2022-07-25T02:50:43.861Z,7.07
2022-07-25T02:53:10.413Z,7.05
2022-07-25T02:55:36.816Z,7.53
2022-07-25T02:58:03.418Z,7.80
2022-07-25T03:00:30.341Z,8.85
2022-07-25T03:02:57.434Z,8.93
2022-07-25T03:05:24.448Z,7.47
2022-07-25T03:07:51.451Z,7.95
2022-07-25T03:10:17.941Z,8.35
2022-07-25T03:12:44.724Z,9.20
2022-07-25T03:15:12.392Z,7.95
2022-07-25T03:17:39.368Z,8.52
2022-07-25T03:20:06.951Z,7.50
2022-07-25T03:22:33.394Z,9.98
2022-07-25T03:24:59.847Z,9.70
2022-07-25T03:27:26.357Z,8.90
2022-07-25T03:29:54.262Z,9.85
2022-07-25T03:32:20.834Z,9.68
2022-07-25T03:34:47.234Z,7.22
2022-07-25T03:37:13.657Z,9.85
2022-07-25T03:39:40.151Z,8.25
2022-07-25T03:42:06.588Z,8.13
2022-07-25T03:44:33.034Z,8.98
2022-07-25T03:46:59.525Z,9.82
2022-07-25T03:49:25.966Z,8.55
2022-07-25T03:51:52.509Z,8.55
2022-07-25T03:54:18.986Z,7.47
2022-07-25T03:56:49.955Z,7.88
2022-07-25T03:59:19.882Z,9.82
2022-07-25T04:01:47.696Z,8.95
2022-07-25T04:04:14.593Z,9.50
2022-07-25T04:06:41.815Z,9.23
2022-07-25T04:09:09.207Z,8.48
2022-07-25T04:11:35.932Z,9.70
2022-07-25T04:14:03.222Z,8.90
2022-07-25T04:16:30.000Z,10.38
2022-07-25T04:18:57.282Z,10.10
2022-07-25T04:21:24.872Z,9.30
2022-07-25T04:23:51.385Z,9.43
2022-07-25T04:26:18.074Z,10.27
2022-07-25T04:28:44.545Z,10.02
2022-07-25T04:31:11.007Z,9.55
2022-07-25T04:33:38.458Z,9.52
2022-07-25T04:36:05.253Z,12.20
2022-07-25T04:38:31.710Z,8.85
2022-07-25T04:40:58.216Z,9.18
2022-07-25T04:43:25.018Z,9.77
2022-07-25T04:45:51.564Z,11.13
2022-07-25T04:48:18.014Z,10.77
2022-07-25T04:50:45.143Z,11.50
2022-07-25T04:53:11.921Z,11.68
2022-07-25T04:55:41.209Z,13.32
2022-07-25T04:58:07.624Z,11.30
2022-07-25T05:00:34.107Z,13.90
2022-07-25T05:03:00.594Z,11.45
2022-07-25T05:05:26.998Z,13.32
2022-07-25T05:07:57.841Z,11.80
2022-07-25T05:10:25.082Z,11.52
2022-07-25T05:12:51.565Z,10.38
2022-07-25T05:15:18.196Z,13.30
2022-07-25T05:17:44.668Z,11.50
2022-07-25T05:20:12.225Z,14.25
2022-07-25T05:22:38.684Z,14.18
2022-07-25T05:25:09.691Z,10.63
2022-07-25T05:27:36.601Z,13.70
2022-07-25T05:30:03.802Z,11.45
2022-07-25T05:32:30.334Z,12.13
2022-07-25T05:34:56.963Z,15.65
2022-07-25T05:37:23.434Z,10.98
2022-07-25T05:39:49.861Z,11.52
2022-07-25T05:42:16.261Z,11.10
2022-07-25T05:44:42.669Z,13.48
2022-07-25T05:47:10.891Z,12.73
2022-07-25T05:49:37.905Z,14.82
2022-07-25T05:52:08.257Z,12.32
2022-07-25T05:54:37.538Z,13.68
2022-07-25T05:57:04.062Z,12.57
2022-07-25T05:59:30.490Z,13.98
2022-07-25T06:01:57.480Z,13.85
2022-07-25T06:04:27.130Z,13.10
2022-07-25T06:06:53.730Z,11.77
2022-07-25T06:09:21.287Z,12.60
2022-07-25T06:11:51.020Z,9.82
2022-07-25T06:14:22.563Z,11.52
2022-07-25T06:16:49.425Z,12.27
2022-07-25T06:19:15.938Z,11.20
2022-07-25T06:21:42.360Z,11.45
2022-07-25T06:24:09.580Z,9.20
2022-07-25T06:26:38.207Z,9.10
2022-07-25T06:29:04.720Z,8.98
2022-07-25T06:31:31.225Z,8.93
2022-07-25T06:33:57.674Z,8.02
2022-07-25T06:36:24.108Z,9.10
2022-07-25T06:38:59.690Z,8.25
2022-07-25T06:41:26.129Z,8.85
2022-07-25T06:43:52.621Z,8.00
2022-07-25T06:46:19.187Z,8.70
2022-07-25T06:48:45.747Z,7.43
2022-07-25T06:51:12.280Z,6.10
2022-07-25T06:53:38.736Z,7.18
2022-07-25T06:56:05.556Z,5.53
2022-07-25T06:58:32.015Z,6.63
2022-07-25T07:01:01.150Z,5.03
2022-07-25T07:03:27.930Z,4.30
2022-07-25T07:05:54.399Z,5.38
2022-07-25T07:08:20.871Z,6.20
2022-07-25T07:10:47.327Z,5.00
2022-07-25T07:13:15.205Z,5.32
2022-07-25T07:15:50.226Z,4.55
2022-07-25T07:18:18.029Z,6.72
2022-07-25T07:20:44.512Z,4.82
2022-07-25T07:23:11.132Z,4.68
2022-07-25T07:25:43.270Z,5.57
2022-07-25T07:28:09.779Z,5.80
2022-07-25T07:31:05.927Z,6.75
2022-07-25T07:33:22.629Z,4.38
2022-07-25T07:35:49.069Z,5.68
2022-07-25T07:38:15.568Z,4.78
2022-07-25T07:40:41.990Z,6.72
2022-07-25T07:43:10.933Z,5.15
2022-07-25T07:45:37.354Z,4.88
2022-07-25T07:48:04.352Z,4.45
2022-07-25T07:50:30.913Z,5.20
2022-07-25T07:52:58.487Z,5.55
2022-07-25T07:55:44.132Z,3.25
2022-07-25T07:58:16.251Z,3.38
2022-07-25T08:00:46.968Z,6.57
2022-07-25T08:03:18.114Z,3.42
2022-07-25T08:05:45.445Z,4.53
2022-07-25T08:08:14.536Z,3.72
2022-07-25T08:10:43.156Z,3.88
2022-07-25T08:13:14.630Z,3.55
2022-07-25T08:15:42.370Z,4.05
2022-07-25T08:18:17.624Z,5.10
2022-07-25T08:20:47.630Z,4.40
2022-07-25T08:23:14.677Z,4.63
2022-07-25T08:25:41.422Z,4.40
2022-07-25T08:28:08.119Z,5.00
2022-07-25T08:30:36.168Z,4.60
2022-07-25T08:33:04.746Z,5.30
2022-07-25T08:35:32.034Z,5.50
2022-07-25T08:37:59.239Z,4.65
2022-07-25T08:40:27.178Z,4.28
2022-07-25T08:42:54.974Z,3.50
2022-07-25T08:45:22.127Z,5.40
2022-07-25T08:47:52.716Z,4.25
2022-07-25T08:50:22.076Z,5.32
2022-07-25T08:55:19.990Z,3.53
2022-07-25T08:57:52.202Z,6.93
2022-07-25T09:00:27.134Z,4.40
2022-07-25T09:02:55.273Z,5.15
2022-07-25T09:05:22.774Z,2.95
2022-07-25T09:07:49.464Z,6.18
2022-07-25T09:10:21.689Z,5.32
2022-07-25T09:12:59.824Z,5.18
2022-07-25T09:15:33.566Z,4.75
2022-07-25T09:18:03.403Z,5.00
2022-07-25T09:20:41.680Z,4.82
2022-07-25T09:23:08.767Z,4.88
2022-07-25T09:25:35.553Z,3.72
2022-07-25T09:28:16.616Z,5.63
2022-07-25T09:31:01.195Z,5.15
2022-07-25T09:33:28.969Z,5.47
2022-07-25T09:35:56.180Z,5.72
2022-07-25T09:38:24.065Z,7.78
2022-07-25T09:41:09.221Z,6.72
2022-07-25T09:43:40.867Z,4.82
2022-07-25T09:46:08.349Z,6.88
2022-07-25T09:48:36.148Z,4.45
2022-07-25T09:51:03.568Z,10.70
2022-07-25T09:53:30.000Z,6.22
2022-07-25T09:55:57.435Z,7.43
2022-07-25T09:58:24.558Z,6.60
2022-07-25T10:00:52.709Z,5.25
2022-07-25T10:03:50.115Z,5.50
2022-07-25T10:06:49.499Z,5.47
2022-07-25T10:09:16.532Z,8.65
2022-07-25T10:12:21.103Z,4.55
2022-07-25T10:15:10.840Z,5.13
2022-07-25T10:17:38.754Z,5.85
2022-07-25T10:20:07.599Z,6.63
2022-07-25T10:22:58.578Z,5.13
2022-07-25T10:25:25.421Z,4.25
2022-07-25T10:27:59.884Z,5.68
2022-07-25T10:30:37.421Z,4.00
2022-07-25T10:33:12.114Z,4.78
2022-07-25T10:35:38.932Z,7.55
2022-07-25T10:38:06.150Z,5.38
2022-07-25T10:40:43.943Z,6.75
2022-07-25T10:43:22.060Z,4.00
2022-07-25T10:45:59.073Z,4.88
2022-07-25T10:48:31.338Z,6.28
2022-07-25T10:50:57.962Z,6.10
2022-07-25T10:53:48.532Z,4.45
2022-07-25T10:56:20.627Z,6.25
2022-07-25T10:59:13.430Z,5.18
2022-07-25T11:01:41.349Z,5.32
2022-07-25T11:04:15.564Z,5.03
2022-07-25T11:06:42.911Z,5.75
2022-07-25T11:09:19.118Z,6.30
2022-07-25T11:11:48.951Z,4.85
2022-07-25T11:14:17.013Z,5.13
2022-07-25T11:16:48.876Z,5.18
2022-07-25T11:19:26.196Z,6.70
2022-07-25T11:21:59.362Z,5.60
2022-07-25T11:24:46.191Z,6.15
2022-07-25T11:27:32.827Z,5.50
2022-07-25T11:30:09.182Z,7.60
2022-07-25T11:32:42.258Z,6.88
2022-07-25T11:35:10.155Z,6.40
2022-07-25T11:37:39.058Z,6.75
2022-07-25T11:40:06.944Z,8.70
2022-07-25T11:42:43.848Z,7.47
2022-07-25T11:45:21.586Z,10.52
2022-07-25T11:47:50.264Z,7.10
2022-07-25T11:50:17.258Z,7.25
2022-07-25T11:52:45.091Z,7.28
2022-07-25T11:55:17.686Z,8.80
2022-07-25T11:57:46.552Z,6.55
2022-07-25T12:00:19.094Z,7.30
2022-07-25T12:02:45.882Z,9.68
2022-07-25T12:05:15.137Z,8.75
2022-07-25T12:07:45.973Z,8.15
2022-07-25T12:10:21.465Z,8.95
2022-07-25T12:12:50.371Z,8.23
2022-07-25T12:15:20.443Z,7.88
2022-07-25T12:17:47.177Z,8.05
2022-07-25T12:20:21.412Z,8.77
2022-07-25T12:22:52.329Z,6.78
2022-07-25T12:25:19.127Z,8.55
2022-07-25T12:27:46.149Z,11.30
2022-07-25T12:30:13.227Z,8.35
2022-07-25T12:32:39.683Z,12.02
2022-07-25T12:35:07.778Z,10.40
2022-07-25T12:37:34.853Z,6.57
2022-07-25T12:40:01.822Z,7.22
2022-07-25T12:42:28.833Z,7.35
2022-07-25T12:44:56.060Z,8.18
2022-07-25T12:47:23.303Z,6.80
2022-07-25T12:49:49.816Z,9.27
2022-07-25T12:52:16.364Z,8.05
2022-07-25T12:54:43.064Z,6.13
2022-07-25T12:57:10.359Z,5.20
2022-07-25T12:59:36.912Z,5.63
2022-07-25T13:02:04.159Z,8.18
2022-07-25T13:04:30.977Z,10.65
2022-07-25T13:06:57.901Z,7.25
2022-07-25T13:09:25.609Z,11.15
2022-07-25T13:11:52.776Z,5.95
2022-07-25T13:14:19.310Z,5.40
2022-07-25T13:16:47.444Z,5.53
2022-07-25T13:19:14.958Z,5.75
2022-07-25T13:21:42.788Z,4.95
2022-07-25T13:24:09.715Z,8.48
2022-07-25T13:26:37.137Z,8.77
2022-07-25T13:29:08.580Z,6.97
2022-07-25T13:31:36.411Z,7.70
2022-07-25T13:34:02.939Z,7.28
2022-07-25T13:36:29.389Z,8.00
2022-07-25T13:38:55.809Z,7.60
2022-07-25T13:41:22.234Z,5.57
2022-07-25T13:43:49.717Z,5.85
2022-07-25T13:46:16.399Z,6.05
2022-07-25T13:48:43.042Z,6.25
2022-07-25T13:51:09.508Z,7.68
2022-07-25T13:53:35.946Z,4.72
2022-07-25T13:56:02.369Z,5.40
2022-07-25T13:58:28.903Z,6.03
2022-07-25T14:00:55.404Z,7.05
2022-07-25T14:03:21.925Z,5.95
2022-07-25T14:05:48.743Z,9.40
2022-07-25T14:08:15.305Z,8.23
2022-07-25T14:10:41.745Z,4.00
2022-07-25T14:13:08.338Z,7.47
2022-07-25T14:15:34.804Z,6.65
2022-07-25T14:18:01.289Z,6.07
2022-07-25T14:20:28.335Z,5.72
2022-07-25T14:22:55.139Z,6.97
2022-07-25T14:25:22.662Z,6.82
2022-07-25T14:27:49.105Z,9.65
2022-07-25T14:30:15.545Z,6.53
2022-07-25T14:32:41.946Z,5.65
2022-07-25T14:35:08.762Z,6.88
2022-07-25T14:37:35.265Z,9.73
2022-07-25T14:40:02.378Z,6.22
2022-07-25T14:42:29.325Z,5.43
2022-07-25T14:44:55.790Z,5.15
2022-07-25T14:47:22.408Z,4.40
2022-07-25T14:49:49.450Z,6.70
2022-07-25T14:52:16.412Z,5.15
2022-07-25T14:54:42.879Z,4.03
2022-07-25T14:57:09.721Z,3.55
2022-07-25T14:59:36.534Z,5.80
2022-07-25T15:02:03.690Z,8.15
2022-07-25T15:04:30.126Z,5.20
2022-07-25T15:06:57.671Z,6.40
2022-07-25T15:09:24.132Z,3.67
2022-07-25T15:11:50.557Z,4.47
2022-07-25T15:14:16.992Z,4.88
2022-07-25T15:16:43.703Z,3.95
2022-07-25T15:19:18.001Z,6.35
2022-07-25T15:21:45.393Z,3.95
2022-07-25T15:24:13.327Z,3.35
2022-07-25T15:26:40.007Z,5.50
2022-07-25T15:29:08.270Z,4.60
2022-07-25T15:31:38.131Z,4.75
2022-07-25T15:34:04.715Z,5.25
2022-07-25T15:36:31.216Z,7.22
2022-07-25T15:38:57.622Z,5.43
2022-07-25T15:41:24.094Z,6.10
2022-07-25T15:43:50.550Z,8.80
2022-07-25T15:46:17.165Z,5.43
2022-07-25T15:48:44.377Z,6.15
2022-07-25T15:51:10.867Z,5.82
2022-07-25T15:53:37.310Z,4.38
2022-07-25T15:56:04.427Z,7.97
2022-07-25T15:58:30.913Z,5.72
2022-07-25T16:00:57.377Z,7.72
2022-07-25T16:03:24.035Z,4.53
2022-07-25T16:05:50.627Z,4.57
2022-07-25T16:08:17.351Z,4.50
2022-07-25T16:10:43.812Z,8.02
2022-07-25T16:13:10.247Z,6.25
2022-07-25T16:15:36.869Z,6.63
2022-07-25T16:18:03.515Z,5.00
2022-07-25T16:20:33.837Z,8.05
2022-07-25T16:23:00.776Z,6.32
2022-07-25T16:25:27.955Z,5.93
2022-07-25T16:27:54.536Z,6.85
2022-07-25T16:30:21.501Z,4.95
2022-07-25T16:32:47.978Z,4.70
2022-07-25T16:35:14.587Z,5.70
2022-07-25T16:37:41.862Z,3.60
2022-07-25T16:40:08.936Z,6.05
2022-07-25T16:42:36.043Z,7.20
2022-07-25T16:45:02.760Z,6.50
2022-07-25T16:47:29.203Z,5.82
2022-07-25T16:49:55.601Z,9.38
2022-07-25T16:52:22.794Z,6.63
2022-07-25T16:54:49.490Z,6.88
2022-07-25T16:57:15.929Z,7.53
2022-07-25T16:59:42.672Z,5.35
2022-07-25T17:02:09.184Z,7.32
2022-07-25T17:04:35.955Z,6.05
2022-07-25T17:07:02.616Z,8.75
2022-07-25T17:09:29.086Z,7.95
2022-07-25T17:11:55.598Z,6.10
2022-07-25T17:14:25.188Z,11.57
2022-07-25T17:16:56.069Z,7.72
2022-07-25T17:19:22.567Z,9.15
2022-07-25T17:21:49.002Z,8.57
2022-07-25T17:24:15.500Z,9.30
2022-07-25T17:26:41.905Z,7.03
2022-07-25T17:29:08.799Z,8.20
2022-07-25T17:31:35.711Z,8.48
2022-07-25T17:34:02.292Z,9.52
2022-07-25T17:36:28.784Z,12.68
2022-07-25T17:38:55.290Z,9.98
2022-07-25T17:41:21.705Z,11.70
2022-07-25T17:43:48.324Z,8.18
2022-07-25T17:46:15.530Z,10.45
2022-07-25T17:48:42.090Z,8.15
2022-07-25T17:51:08.607Z,13.90
2022-07-25T17:53:35.069Z,10.13
2022-07-25T17:56:02.060Z,9.27
2022-07-25T17:58:28.523Z,9.38
2022-07-25T18:00:59.630Z,10.10
2022-07-25T18:03:27.745Z,11.60
2022-07-25T18:05:55.657Z,8.50
2022-07-25T18:08:22.289Z,12.07
2022-07-25T18:10:49.818Z,8.15
2022-07-25T18:13:17.739Z,6.22
2022-07-25T18:15:47.360Z,7.78
2022-07-25T18:18:18.440Z,10.52
2022-07-25T18:20:47.133Z,10.43
2022-07-25T18:23:13.540Z,8.07
2022-07-25T18:25:40.166Z,8.77
2022-07-25T18:28:06.852Z,11.32
2022-07-25T18:30:33.292Z,8.27
2022-07-25T18:32:59.717Z,13.75
2022-07-25T18:35:26.239Z,6.68
2022-07-25T18:37:52.679Z,6.78
2022-07-25T18:40:20.645Z,8.95
2022-07-25T18:42:47.254Z,9.07
2022-07-25T18:45:13.849Z,7.63
2022-07-25T18:47:40.952Z,10.10
2022-07-25T18:50:08.009Z,10.52
2022-07-25T18:52:37.532Z,4.82
2022-07-25T18:55:07.700Z,9.05
2022-07-25T18:57:34.458Z,8.30
2022-07-25T19:00:03.383Z,10.35
2022-07-25T19:02:30.278Z,6.97
2022-07-25T19:04:56.760Z,7.53
2022-07-25T19:07:23.341Z,10.13
2022-07-25T19:09:49.860Z,10.13
2022-07-25T19:12:16.313Z,7.47
2022-07-25T19:14:42.829Z,10.25
2022-07-25T19:17:09.389Z,9.52
2022-07-25T19:19:35.849Z,9.95
2022-07-25T19:22:02.509Z,9.80
2022-07-25T19:24:29.891Z,10.10
2022-07-25T19:26:57.180Z,10.48
2022-07-25T19:29:23.600Z,11.18
2022-07-25T19:31:50.078Z,12.15
2022-07-25T19:34:16.514Z,11.60
2022-07-25T19:36:45.759Z,11.77
2022-07-25T19:39:12.783Z,12.38
2022-07-25T19:41:42.187Z,10.27
2022-07-25T19:44:12.701Z,8.63
2022-07-25T19:46:39.267Z,12.20
2022-07-25T19:49:05.950Z,9.70
2022-07-25T19:51:32.866Z,15.43
2022-07-25T19:53:59.937Z,9.07
2022-07-25T19:56:26.405Z,9.05
2022-07-25T19:58:52.917Z,8.23
2022-07-25T20:01:19.400Z,16.77
2022-07-25T20:03:45.866Z,8.13
2022-07-25T20:06:12.291Z,13.45
2022-07-25T20:08:39.515Z,9.93
2022-07-25T20:11:07.410Z,10.00
2022-07-25T20:13:34.753Z,10.98
2022-07-25T20:16:03.626Z,8.25
2022-07-25T20:18:30.316Z,9.20
2022-07-25T20:20:56.824Z,11.27
2022-07-25T20:23:23.863Z,13.95
2022-07-25T20:25:50.589Z,11.27
2022-07-25T20:28:17.167Z,12.85
2022-07-25T20:30:43.859Z,10.90
2022-07-25T20:33:10.346Z,11.90
2022-07-25T20:35:37.381Z,12.65
2022-07-25T20:38:09.387Z,9.40
2022-07-25T20:40:36.840Z,12.32
2022-07-25T20:43:05.258Z,11.10
2022-07-25T20:45:31.658Z,13.02
2022-07-25T20:47:58.060Z,11.40
2022-07-25T20:50:24.545Z,11.77
2022-07-25T20:52:50.969Z,14.45
2022-07-25T20:55:17.371Z,14.82
2022-07-25T20:57:48.628Z,11.50
2022-07-25T21:00:16.923Z,14.45
2022-07-25T21:02:43.469Z,13.68
2022-07-25T21:05:10.081Z,11.88
2022-07-25T21:07:36.549Z,13.55
2022-07-25T21:10:03.090Z,12.05
2022-07-25T21:12:32.550Z,10.65
2022-07-25T21:14:59.543Z,12.65
2022-07-25T21:17:25.961Z,13.15
2022-07-25T21:19:52.405Z,16.40
2022-07-25T21:22:18.870Z,14.65
2022-07-25T21:24:45.353Z,13.85
2022-07-25T21:27:11.834Z,13.50
2022-07-25T21:29:38.275Z,13.73
2022-07-25T21:32:05.197Z,13.35
2022-07-25T21:34:31.645Z,16.58
2022-07-25T21:36:58.206Z,10.20
2022-07-25T21:39:24.608Z,14.32
2022-07-25T21:41:54.852Z,11.77
2022-07-25T21:44:21.820Z,13.50
2022-07-25T21:46:50.049Z,13.60
2022-07-25T21:49:41.030Z,16.10
2022-07-25T21:52:08.610Z,10.55
2022-07-25T21:54:40.675Z,11.75
2022-07-25T21:57:07.106Z,14.65
2022-07-25T21:59:43.117Z,15.05
2022-07-25T22:02:09.750Z,13.88
2022-07-25T22:04:36.449Z,13.75
2022-07-25T22:07:03.177Z,14.77
2022-07-25T22:09:29.792Z,16.00
2022-07-25T22:11:57.355Z,14.48
2022-07-25T22:14:24.068Z,13.73
2022-07-25T22:16:50.569Z,18.25
2022-07-25T22:19:20.752Z,13.88
2022-07-25T22:21:48.710Z,16.58
2022-07-25T22:24:16.183Z,14.10
2022-07-25T22:26:42.695Z,12.23
2022-07-25T22:29:09.589Z,20.10
2022-07-25T22:31:38.635Z,13.10
2022-07-25T22:34:05.231Z,15.35
2022-07-25T22:36:31.642Z,15.65
2022-07-25T22:38:58.154Z,14.02
2022-07-25T22:41:24.577Z,15.40
2022-07-25T22:43:58.602Z,16.27
2022-07-25T22:46:29.994Z,16.90
2022-07-25T22:48:57.906Z,13.07
2022-07-25T22:51:24.703Z,13.38
2022-07-25T22:53:51.152Z,10.98
2022-07-25T22:56:17.768Z,14.43
2022-07-25T22:58:44.241Z,14.30
2022-07-25T23:01:13.219Z,18.67
2022-07-25T23:03:39.735Z,16.15
2022-07-25T23:06:06.525Z,18.00
2022-07-25T23:08:33.142Z,12.77
2022-07-25T23:10:59.685Z,15.70
2022-07-25T23:13:26.180Z,15.18
2022-07-25T23:15:52.655Z,18.92
2022-07-25T23:18:19.312Z,16.02
2022-07-25T23:20:46.330Z,12.32
2022-07-25T23:23:13.124Z,19.00
2022-07-25T23:25:39.708Z,14.77
2022-07-25T23:28:06.206Z,14.52
2022-07-25T23:30:38.070Z,21.42
2022-07-25T23:33:06.875Z,14.30
2022-07-25T23:35:33.550Z,19.77
2022-07-25T23:38:00.020Z,16.17
2022-07-25T23:40:26.802Z,12.27
2022-07-25T23:42:54.348Z,18.23
2022-07-25T23:45:21.628Z,14.55
2022-07-25T23:47:48.331Z,12.77
2022-07-25T23:50:15.560Z,16.67
2022-07-25T23:52:42.138Z,20.13
2022-07-25T23:55:09.101Z,16.40
2022-07-25T23:57:35.701Z,19.55
